createdAt,value
2017-05-25T00:01:30.923Z,89.30
2017-05-25T00:04:00.178Z,89.90
2017-05-25T00:06:29.088Z,90.10
2017-05-25T00:08:57.193Z,90.10
2017-05-25T00:11:26.924Z,90.20
2017-05-25T00:13:55.799Z,90.30
2017-05-25T00:16:24.875Z,90.30
2017-05-25T00:18:54.058Z,90.30
2017-05-25T00:21:22.951Z,90.50
2017-05-25T00:23:51.941Z,90.70
2017-05-25T00:26:21.118Z,91.10
2017-05-25T00:28:50.096Z,90.80
2017-05-25T00:31:18.994Z,91.00
2017-05-25T00:33:48.175Z,90.90
2017-05-25T00:36:17.167Z,91.00
2017-05-25T00:38:46.083Z,91.20
2017-05-25T00:41:14.519Z,91.20
2017-05-25T00:43:43.552Z,91.60
2017-05-25T00:46:12.449Z,91.60
2017-05-25T00:48:41.686Z,91.60
2017-05-25T00:51:10.587Z,91.50
2017-05-25T00:53:39.611Z,91.60
2017-05-25T00:56:08.825Z,91.60
2017-05-25T00:58:37.725Z,91.50
2017-05-25T01:01:06.684Z,91.40
2017-05-25T01:03:35.908Z,91.30
2017-05-25T01:06:04.795Z,91.40
2017-05-25T01:08:33.676Z,91.50
2017-05-25T01:11:02.880Z,91.60
2017-05-25T01:13:31.830Z,91.60
2017-05-25T01:16:00.813Z,91.60
2017-05-25T01:18:30.057Z,91.60
2017-05-25T01:20:58.927Z,91.70
2017-05-25T01:23:28.022Z,91.70
2017-05-25T01:25:57.316Z,91.60
2017-05-25T01:28:26.186Z,91.30
2017-05-25T01:30:55.065Z,91.50
2017-05-25T01:33:24.330Z,91.30
2017-05-25T01:35:53.690Z,91.30
2017-05-25T01:38:22.575Z,91.30
2017-05-25T01:40:51.761Z,91.30
2017-05-25T01:43:20.839Z,91.20
2017-05-25T01:45:49.738Z,91.20
2017-05-25T01:48:18.973Z,91.10
2017-05-25T01:50:47.921Z,91.00
2017-05-25T01:53:16.069Z,91.00
2017-05-25T01:55:45.236Z,91.00
2017-05-25T01:58:14.440Z,90.90
2017-05-25T02:00:43.374Z,91.00
2017-05-25T02:03:12.632Z,90.80
2017-05-25T02:05:41.526Z,90.80
2017-05-25T02:08:10.392Z,90.80
2017-05-25T02:10:39.573Z,90.80
2017-05-25T02:13:08.452Z,90.80
2017-05-25T02:15:37.560Z,91.10
2017-05-25T02:18:06.796Z,90.90
2017-05-25T02:20:35.663Z,90.80
2017-05-25T02:23:04.573Z,90.80
2017-05-25T02:25:33.976Z,90.80
2017-05-25T02:28:02.084Z,90.80
2017-05-25T02:30:30.975Z,90.70
2017-05-25T02:33:00.239Z,90.60
2017-05-25T02:35:29.124Z,90.70
2017-05-25T02:37:58.018Z,90.70
2017-05-25T02:40:27.229Z,90.60
2017-05-25T02:42:56.241Z,90.50
2017-05-25T02:45:25.122Z,90.40
2017-05-25T02:47:54.349Z,90.80
2017-05-25T02:50:23.246Z,90.40
2017-05-25T02:52:51.376Z,90.40
2017-05-25T02:55:20.711Z,90.40
2017-05-25T02:57:49.682Z,90.50
2017-05-25T03:00:18.551Z,90.30
2017-05-25T03:02:47.764Z,90.40
2017-05-25T03:05:15.886Z,90.30
2017-05-25T03:07:44.779Z,90.20
2017-05-25T03:10:13.946Z,90.20
2017-05-25T03:12:42.831Z,90.10
2017-05-25T03:15:11.714Z,90.00
2017-05-25T03:17:40.881Z,90.20
2017-05-25T03:20:09.772Z,90.00
2017-05-25T03:22:38.769Z,90.50
2017-05-25T03:25:07.986Z,90.00
2017-05-25T03:27:36.872Z,90.00
2017-05-25T03:30:05.769Z,90.10
2017-05-25T03:32:35.121Z,90.00
2017-05-25T03:35:04.064Z,90.00
2017-05-25T03:37:32.995Z,90.10
2017-05-25T03:40:02.217Z,90.10
2017-05-25T03:42:30.361Z,90.10
2017-05-25T03:44:59.352Z,90.30
2017-05-25T03:47:28.394Z,90.40
2017-05-25T03:49:56.510Z,90.20
2017-05-25T03:52:25.688Z,90.20
2017-05-25T03:54:53.885Z,90.20
2017-05-25T03:57:22.744Z,90.10
2017-05-25T03:59:51.901Z,90.20
2017-05-25T04:02:21.356Z,90.10
2017-05-25T04:04:50.351Z,90.00
2017-05-25T04:07:19.708Z,90.10
2017-05-25T04:09:49.311Z,89.60
2017-05-25T04:12:18.316Z,88.80
2017-05-25T04:14:47.704Z,88.80
2017-05-25T04:17:16.643Z,88.60
2017-05-25T04:19:45.703Z,88.50
2017-05-25T04:22:14.977Z,88.50
2017-05-25T04:24:43.949Z,88.10
2017-05-25T04:27:12.846Z,87.80
2017-05-25T04:29:42.218Z,87.40
2017-05-25T04:32:11.121Z,87.80
2017-05-25T04:34:40.416Z,87.50
2017-05-25T04:37:09.612Z,87.50
2017-05-25T04:39:38.510Z,87.30
2017-05-25T04:42:07.399Z,87.10
2017-05-25T04:44:36.633Z,87.30
2017-05-25T04:47:05.523Z,86.60
2017-05-25T04:49:34.454Z,86.70
2017-05-25T04:52:03.770Z,86.80
2017-05-25T04:54:32.645Z,86.70
2017-05-25T04:57:01.579Z,86.60
2017-05-25T04:59:30.809Z,86.50
2017-05-25T05:01:59.703Z,86.90
2017-05-25T05:04:28.810Z,86.70
2017-05-25T05:06:58.105Z,86.70
2017-05-25T05:09:27.017Z,87.10
2017-05-25T05:11:55.902Z,86.40
2017-05-25T05:14:25.474Z,86.40
2017-05-25T05:16:54.353Z,86.50
2017-05-25T05:19:23.233Z,86.30
2017-05-25T05:21:51.655Z,86.40
2017-05-25T05:24:20.550Z,86.20
2017-05-25T05:26:49.607Z,85.40
2017-05-25T05:29:18.879Z,85.20
2017-05-25T05:31:47.874Z,85.00
2017-05-25T05:34:16.780Z,84.10
2017-05-25T05:36:45.984Z,84.10
2017-05-25T05:39:14.862Z,87.60
2017-05-25T05:41:43.758Z,87.20
2017-05-25T05:44:13.006Z,85.50
2017-05-25T05:46:42.270Z,82.60
2017-05-25T05:49:11.161Z,80.90
2017-05-25T05:51:40.364Z,78.80
2017-05-25T05:54:08.514Z,78.80
2017-05-25T05:56:37.412Z,79.90
2017-05-25T05:59:06.625Z,80.40
2017-05-25T06:01:36.159Z,79.70
2017-05-25T06:04:05.054Z,80.00
2017-05-25T06:06:34.338Z,80.20
2017-05-25T06:09:03.223Z,80.70
2017-05-25T06:11:32.151Z,80.90
2017-05-25T06:14:01.340Z,81.00
2017-05-25T06:16:30.238Z,80.70
2017-05-25T06:18:59.353Z,80.80
2017-05-25T06:21:28.645Z,80.60
2017-05-25T06:23:57.528Z,80.90
2017-05-25T06:26:26.423Z,81.00
2017-05-25T06:28:55.677Z,80.20
2017-05-25T06:31:24.547Z,79.30
2017-05-25T06:33:53.438Z,79.50
2017-05-25T06:36:22.660Z,79.50
2017-05-25T06:38:51.563Z,80.40
2017-05-25T06:41:20.439Z,80.80
2017-05-25T06:43:49.697Z,81.10
2017-05-25T06:46:18.572Z,80.50
2017-05-25T06:48:47.464Z,80.60
2017-05-25T06:51:16.839Z,80.70
2017-05-25T06:53:44.954Z,80.80
2017-05-25T06:56:13.829Z,79.10
2017-05-25T06:58:43.100Z,78.80
2017-05-25T07:01:11.993Z,79.40
2017-05-25T07:03:40.878Z,77.60
2017-05-25T07:06:10.083Z,77.40
2017-05-25T07:08:38.961Z,77.10
2017-05-25T07:11:07.832Z,77.40
2017-05-25T07:13:37.822Z,77.80
2017-05-25T07:16:06.715Z,78.40
2017-05-25T07:18:35.687Z,78.70
2017-05-25T07:21:04.943Z,80.00
2017-05-25T07:23:33.821Z,78.60
2017-05-25T07:26:02.308Z,78.50
2017-05-25T07:28:31.491Z,77.50
2017-05-25T07:31:00.735Z,77.80
2017-05-25T07:33:29.847Z,78.10
2017-05-25T07:35:59.202Z,77.80
2017-05-25T07:38:28.110Z,77.80
2017-05-25T07:40:57.023Z,76.50
2017-05-25T07:43:26.958Z,77.50
2017-05-25T07:45:55.850Z,77.10
2017-05-25T07:48:24.757Z,77.60
2017-05-25T07:50:54.071Z,76.90
2017-05-25T07:53:22.961Z,77.20
2017-05-25T07:55:51.175Z,77.20
2017-05-25T07:58:20.412Z,77.20
2017-05-25T08:00:48.559Z,77.30
2017-05-25T08:03:17.486Z,75.90
2017-05-25T08:05:46.887Z,75.90
2017-05-25T08:08:16.589Z,75.30
2017-05-25T08:10:45.480Z,74.00
2017-05-25T08:13:14.687Z,74.10
2017-05-25T08:15:43.608Z,74.10
2017-05-25T08:18:12.511Z,73.50
2017-05-25T08:20:41.696Z,73.60
2017-05-25T08:23:10.620Z,73.80
2017-05-25T08:25:39.512Z,74.30
2017-05-25T08:28:08.824Z,73.60
2017-05-25T08:30:37.719Z,74.20
2017-05-25T08:33:06.636Z,74.60
2017-05-25T08:35:35.883Z,74.40
2017-05-25T08:38:04.761Z,74.50
2017-05-25T08:40:33.655Z,75.00
2017-05-25T08:43:02.837Z,74.10
2017-05-25T08:45:31.731Z,73.60
2017-05-25T08:48:00.630Z,72.10
2017-05-25T08:50:29.882Z,70.30
2017-05-25T08:52:57.996Z,70.20
2017-05-25T08:55:26.897Z,67.30
2017-05-25T08:57:56.092Z,66.60
2017-05-25T09:00:25.025Z,66.00
2017-05-25T09:02:53.909Z,65.50
2017-05-25T09:05:23.105Z,64.70
2017-05-25T09:07:51.992Z,65.40
2017-05-25T09:10:20.868Z,66.20
2017-05-25T09:12:50.033Z,66.30
2017-05-25T09:15:18.945Z,66.00
2017-05-25T09:17:47.834Z,67.10
2017-05-25T09:20:17.001Z,67.90
2017-05-25T09:22:45.894Z,67.60
2017-05-25T09:25:14.826Z,68.10
2017-05-25T09:27:43.996Z,69.40
2017-05-25T09:30:13.622Z,69.40
2017-05-25T09:32:42.501Z,68.40
2017-05-25T09:35:11.781Z,69.80
2017-05-25T09:37:40.668Z,70.60
2017-05-25T09:40:09.586Z,70.40
2017-05-25T09:42:38.784Z,69.40
2017-05-25T09:45:07.739Z,69.40
2017-05-25T09:47:36.730Z,67.60
2017-05-25T09:50:05.915Z,68.30
2017-05-25T09:52:35.320Z,68.60
2017-05-25T09:55:04.208Z,69.10
2017-05-25T09:57:33.510Z,69.20
2017-05-25T10:00:02.630Z,69.70
2017-05-25T10:02:31.546Z,70.10
2017-05-25T10:05:00.868Z,70.10
2017-05-25T10:07:29.794Z,70.40
2017-05-25T10:09:58.775Z,72.30
2017-05-25T10:12:27.966Z,71.60
2017-05-25T10:14:57.496Z,71.80
2017-05-25T10:17:26.394Z,71.20
2017-05-25T10:19:55.623Z,71.10
2017-05-25T10:22:24.532Z,70.10
2017-05-25T10:24:53.420Z,68.10
2017-05-25T10:27:22.621Z,67.20
2017-05-25T10:29:51.643Z,68.00
2017-05-25T10:32:20.515Z,69.30
2017-05-25T10:34:49.751Z,70.10
2017-05-25T10:37:18.667Z,70.20
2017-05-25T10:39:47.740Z,70.10
2017-05-25T10:42:16.944Z,68.50
2017-05-25T10:44:45.839Z,68.80
2017-05-25T10:47:14.764Z,66.90
2017-05-25T10:49:44.444Z,64.50
2017-05-25T10:52:12.594Z,64.40
2017-05-25T10:54:41.475Z,64.60
2017-05-25T10:57:10.677Z,63.50
2017-05-25T10:59:39.553Z,64.20
2017-05-25T11:02:08.452Z,62.60
2017-05-25T11:04:37.777Z,60.70
2017-05-25T11:07:06.679Z,60.90
2017-05-25T11:09:35.616Z,60.50
2017-05-25T11:12:04.830Z,59.20
2017-05-25T11:14:33.844Z,58.90
2017-05-25T11:17:02.772Z,63.70
2017-05-25T11:19:31.951Z,59.70
2017-05-25T11:22:00.084Z,59.60
2017-05-25T11:24:29.014Z,59.90
2017-05-25T11:26:57.424Z,59.90
2017-05-25T11:29:26.300Z,59.50
2017-05-25T11:31:55.263Z,59.40
2017-05-25T11:34:24.500Z,58.90
2017-05-25T11:36:53.399Z,59.60
2017-05-25T11:39:22.354Z,59.80
2017-05-25T11:41:50.759Z,59.70
2017-05-25T11:44:19.655Z,59.50
2017-05-25T11:46:48.608Z,59.70
2017-05-25T11:49:18.714Z,62.00
2017-05-25T11:51:46.859Z,61.90
2017-05-25T11:54:15.755Z,59.10
2017-05-25T11:56:44.939Z,58.90
2017-05-25T11:59:13.834Z,58.10
2017-05-25T12:01:43.394Z,56.90
2017-05-25T12:04:12.644Z,56.70
2017-05-25T12:06:41.538Z,57.40
2017-05-25T12:09:10.803Z,57.30
2017-05-25T12:11:39.973Z,56.60
2017-05-25T12:14:08.894Z,56.30
2017-05-25T12:16:37.012Z,56.30
2017-05-25T12:19:06.341Z,56.40
2017-05-25T12:21:35.278Z,55.20
2017-05-25T12:24:04.277Z,55.10
2017-05-25T12:26:33.561Z,55.80
2017-05-25T12:29:02.477Z,55.20
2017-05-25T12:31:30.620Z,55.10
2017-05-25T12:33:59.886Z,55.30
2017-05-25T12:36:28.868Z,55.00
2017-05-25T12:38:57.772Z,55.80
2017-05-25T12:41:27.009Z,54.80
2017-05-25T12:43:55.908Z,53.90
2017-05-25T12:46:25.458Z,54.20
2017-05-25T12:48:54.666Z,53.60
2017-05-25T12:51:23.562Z,53.60
2017-05-25T12:53:52.482Z,53.80
2017-05-25T12:56:21.844Z,53.30
2017-05-25T12:58:50.730Z,53.60
2017-05-25T13:01:20.075Z,54.30
2017-05-25T13:03:49.382Z,54.70
2017-05-25T13:06:18.402Z,54.50
2017-05-25T13:08:47.285Z,55.20
2017-05-25T13:11:15.737Z,55.10
2017-05-25T13:13:44.667Z,54.80
2017-05-25T13:16:13.564Z,54.60
2017-05-25T13:18:42.855Z,54.90
2017-05-25T13:21:11.738Z,54.90
2017-05-25T13:23:40.670Z,55.10
2017-05-25T13:26:09.904Z,55.50
2017-05-25T13:28:38.799Z,54.00
2017-05-25T13:31:07.699Z,54.00
2017-05-25T13:33:37.046Z,54.30
2017-05-25T13:36:05.924Z,54.30
2017-05-25T13:38:34.827Z,55.30
2017-05-25T13:41:03.977Z,55.30
2017-05-25T13:43:32.873Z,55.10
2017-05-25T13:46:01.780Z,54.80
2017-05-25T13:48:30.968Z,54.60
2017-05-25T13:50:59.881Z,54.40
2017-05-25T13:53:28.772Z,55.30
2017-05-25T13:55:58.115Z,54.60
2017-05-25T13:58:27.016Z,54.20
2017-05-25T14:00:55.891Z,54.10
2017-05-25T14:03:25.235Z,54.00
2017-05-25T14:05:54.121Z,53.50
2017-05-25T14:08:23.029Z,53.90
2017-05-25T14:10:52.362Z,53.20
2017-05-25T14:13:21.335Z,53.40
2017-05-25T14:15:50.223Z,53.90
2017-05-25T14:18:19.424Z,54.80
2017-05-25T14:20:48.332Z,54.90
2017-05-25T14:23:17.222Z,55.40
2017-05-25T14:25:46.473Z,53.70
2017-05-25T14:28:15.366Z,54.20
2017-05-25T14:30:44.255Z,52.80
2017-05-25T14:33:13.447Z,53.20
2017-05-25T14:35:42.330Z,52.90
2017-05-25T14:38:11.224Z,53.20
2017-05-25T14:40:40.441Z,53.30
2017-05-25T14:43:09.364Z,53.70
2017-05-25T14:45:38.341Z,54.20
2017-05-25T14:48:07.576Z,53.90
2017-05-25T14:50:36.526Z,53.50
2017-05-25T14:53:05.408Z,53.70
2017-05-25T14:55:34.707Z,53.80
2017-05-25T14:58:03.600Z,54.00
2017-05-25T15:00:32.496Z,54.20
2017-05-25T15:03:01.854Z,54.10
2017-05-25T15:05:30.727Z,55.10
2017-05-25T15:07:59.599Z,52.50
2017-05-25T15:10:28.832Z,52.80
2017-05-25T15:12:57.709Z,53.10
2017-05-25T15:15:26.699Z,53.90
2017-05-25T15:17:55.962Z,53.00
2017-05-25T15:20:24.857Z,53.00
2017-05-25T15:22:53.817Z,53.20
2017-05-25T15:25:23.015Z,52.60
2017-05-25T15:27:52.008Z,53.20
2017-05-25T15:30:20.907Z,53.60
2017-05-25T15:32:50.077Z,54.10
2017-05-25T15:35:18.948Z,53.50
2017-05-25T15:37:47.823Z,53.50
2017-05-25T15:40:17.039Z,53.70
2017-05-25T15:42:45.931Z,53.90
2017-05-25T15:45:14.975Z,54.60
2017-05-25T15:47:44.332Z,55.30
2017-05-25T15:50:13.212Z,55.10
2017-05-25T15:52:42.107Z,55.50
2017-05-25T15:55:11.338Z,55.50
2017-05-25T15:57:40.231Z,56.20
2017-05-25T16:00:09.105Z,56.60
2017-05-25T16:02:38.392Z,56.20
2017-05-25T16:05:07.291Z,56.20
2017-05-25T16:07:36.184Z,56.00
2017-05-25T16:10:05.463Z,56.10
2017-05-25T16:12:34.477Z,56.60
2017-05-25T16:15:03.803Z,56.50
2017-05-25T16:17:33.044Z,57.00
2017-05-25T16:20:02.120Z,56.70
2017-05-25T16:22:31.035Z,56.70
2017-05-25T16:25:00.270Z,57.10
2017-05-25T16:27:29.174Z,57.00
2017-05-25T16:29:58.086Z,56.20
2017-05-25T16:32:27.259Z,56.90
2017-05-25T16:34:56.258Z,56.60
2017-05-25T16:37:24.393Z,56.60
2017-05-25T16:39:53.652Z,56.80
2017-05-25T16:42:22.619Z,56.30
2017-05-25T16:44:51.684Z,56.70
2017-05-25T16:47:20.941Z,56.50
2017-05-25T16:49:49.847Z,57.10
2017-05-25T16:52:18.752Z,57.00
2017-05-25T16:54:48.070Z,56.90
2017-05-25T16:57:17.012Z,57.70
2017-05-25T16:59:45.915Z,57.30
2017-05-25T17:02:15.229Z,56.80
2017-05-25T17:04:44.152Z,56.30
2017-05-25T17:07:12.351Z,56.30
2017-05-25T17:09:41.611Z,56.30
2017-05-25T17:12:10.552Z,56.20
2017-05-25T17:14:39.510Z,56.70
2017-05-25T17:17:08.765Z,56.90
2017-05-25T17:19:37.678Z,56.60
2017-05-25T17:22:06.587Z,56.80
2017-05-25T17:24:35.792Z,57.10
2017-05-25T17:27:04.714Z,57.10
2017-05-25T17:29:33.679Z,57.30
2017-05-25T17:32:02.859Z,57.40
2017-05-25T17:34:30.987Z,57.30
2017-05-25T17:36:59.897Z,57.50
2017-05-25T17:39:29.112Z,57.80
2017-05-25T17:41:58.033Z,58.00
2017-05-25T17:44:27.072Z,57.60
2017-05-25T17:46:56.348Z,57.80
2017-05-25T17:49:25.229Z,58.00
2017-05-25T17:51:54.139Z,58.20
2017-05-25T17:54:23.339Z,58.30
2017-05-25T17:56:52.215Z,58.60
2017-05-25T17:59:21.118Z,58.60
2017-05-25T18:01:50.338Z,58.90
2017-05-25T18:04:19.866Z,59.20
2017-05-25T18:06:48.748Z,60.00
2017-05-25T18:09:17.189Z,59.90
2017-05-25T18:11:46.137Z,61.00
2017-05-25T18:14:15.050Z,61.40
2017-05-25T18:16:44.251Z,62.00
2017-05-25T18:19:13.154Z,62.30
2017-05-25T18:21:42.037Z,62.40
2017-05-25T18:24:11.318Z,62.80
2017-05-25T18:26:40.512Z,63.20
2017-05-25T18:29:09.416Z,63.40
2017-05-25T18:31:38.644Z,63.70
2017-05-25T18:34:07.723Z,64.20
2017-05-25T18:36:36.640Z,64.70
2017-05-25T18:39:06.005Z,65.00
2017-05-25T18:41:35.556Z,65.20
2017-05-25T18:44:04.444Z,65.40
2017-05-25T18:46:33.647Z,65.40
2017-05-25T18:49:02.538Z,65.50
2017-05-25T18:51:31.434Z,65.70
2017-05-25T18:54:00.645Z,65.80
2017-05-25T18:56:29.595Z,66.40
2017-05-25T18:58:58.484Z,66.80
2017-05-25T19:01:27.793Z,66.80
2017-05-25T19:03:56.037Z,66.80
2017-05-25T19:06:24.937Z,67.40
2017-05-25T19:08:54.151Z,68.00
2017-05-25T19:11:23.065Z,68.00
2017-05-25T19:13:51.942Z,68.30
2017-05-25T19:16:21.157Z,68.70
2017-05-25T19:18:50.036Z,69.20
2017-05-25T19:21:19.377Z,69.60
2017-05-25T19:23:48.323Z,70.10
2017-05-25T19:26:17.219Z,70.40
2017-05-25T19:28:46.263Z,70.40
2017-05-25T19:31:15.189Z,70.70
2017-05-25T19:33:44.074Z,71.00
2017-05-25T19:36:12.963Z,71.40
2017-05-25T19:38:41.886Z,71.60
2017-05-25T19:41:10.787Z,72.70
2017-05-25T19:43:39.736Z,72.00
2017-05-25T19:46:08.726Z,72.50
2017-05-25T19:48:40.158Z,72.90
2017-05-25T19:51:09.150Z,73.00
2017-05-25T19:53:38.317Z,73.30
2017-05-25T19:56:07.274Z,73.70
2017-05-25T19:58:36.493Z,74.20
2017-05-25T20:01:05.399Z,74.30
2017-05-25T20:03:34.660Z,74.80
2017-05-25T20:06:04.241Z,75.40
2017-05-25T20:08:33.136Z,75.20
2017-05-25T20:11:02.051Z,75.50
2017-05-25T20:13:31.234Z,75.90
2017-05-25T20:16:00.173Z,76.10
2017-05-25T20:18:29.122Z,76.70
2017-05-25T20:20:58.419Z,77.00
2017-05-25T20:23:27.783Z,77.10
2017-05-25T20:25:56.739Z,77.30
2017-05-25T20:28:26.114Z,77.50
2017-05-25T20:30:55.107Z,77.90
2017-05-25T20:33:24.011Z,78.20
2017-05-25T20:35:53.273Z,78.60
2017-05-25T20:38:22.267Z,79.20
2017-05-25T20:40:51.222Z,79.60
2017-05-25T20:43:20.618Z,81.10
2017-05-25T20:45:49.575Z,81.10
2017-05-25T20:48:19.520Z,81.70
2017-05-25T20:50:48.792Z,82.60
2017-05-25T20:53:17.671Z,82.90
2017-05-25T20:55:46.597Z,83.50
2017-05-25T20:58:15.873Z,83.80
2017-05-25T21:00:44.789Z,84.30
2017-05-25T21:03:13.772Z,84.30
2017-05-25T21:05:42.947Z,84.40
2017-05-25T21:08:11.859Z,84.70
2017-05-25T21:10:40.778Z,84.80
2017-05-25T21:13:09.969Z,85.00
2017-05-25T21:15:38.862Z,85.80
2017-05-25T21:18:07.734Z,85.00
2017-05-25T21:20:37.054Z,85.00
2017-05-25T21:23:05.963Z,85.10
2017-05-25T21:25:34.899Z,85.10
2017-05-25T21:28:04.180Z,85.40
2017-05-25T21:30:33.075Z,85.70
2017-05-25T21:33:01.219Z,85.70
2017-05-25T21:35:30.433Z,86.30
2017-05-25T21:37:58.719Z,86.20
2017-05-25T21:40:27.614Z,86.90
2017-05-25T21:42:56.785Z,87.30
2017-05-25T21:45:25.728Z,87.60
2017-05-25T21:47:55.058Z,88.10
2017-05-25T21:50:24.401Z,88.30
2017-05-25T21:52:53.373Z,88.30
2017-05-25T21:55:22.305Z,88.50
2017-05-25T21:57:51.534Z,88.70
2017-05-25T22:00:20.441Z,89.10
2017-05-25T22:02:49.337Z,89.20
2017-05-25T22:05:18.560Z,89.40
2017-05-25T22:07:47.782Z,89.50
2017-05-25T22:10:16.926Z,89.70
2017-05-25T22:12:46.205Z,89.80
2017-05-25T22:15:15.090Z,89.20
2017-05-25T22:17:43.975Z,90.00
2017-05-25T22:20:13.153Z,90.10
2017-05-25T22:22:42.038Z,90.30
2017-05-25T22:25:10.935Z,90.30
2017-05-25T22:27:40.420Z,90.40
2017-05-25T22:30:09.539Z,90.60
2017-05-25T22:32:38.440Z,90.60
2017-05-25T22:35:07.604Z,90.70
2017-05-25T22:37:36.564Z,90.80
2017-05-25T22:40:05.427Z,90.80
2017-05-25T22:42:34.697Z,91.00
2017-05-25T22:45:03.609Z,91.00
2017-05-25T22:47:32.522Z,91.20
2017-05-25T22:50:01.737Z,91.30
2017-05-25T22:52:30.634Z,91.40
2017-05-25T22:54:59.558Z,91.50
2017-05-25T22:57:28.860Z,91.50
2017-05-25T22:59:57.819Z,91.70
2017-05-25T23:02:26.713Z,91.80
2017-05-25T23:04:55.966Z,91.70
2017-05-25T23:07:24.899Z,91.70
2017-05-25T23:09:53.815Z,91.70
2017-05-25T23:12:23.073Z,91.90
2017-05-25T23:14:51.990Z,92.00
2017-05-25T23:17:20.878Z,92.30
2017-05-25T23:19:50.186Z,92.10
2017-05-25T23:22:19.064Z,92.10
2017-05-25T23:24:47.978Z,92.20
2017-05-25T23:27:17.256Z,92.20
2017-05-25T23:29:46.153Z,92.30
2017-05-25T23:32:15.048Z,92.30
2017-05-25T23:34:44.263Z,92.40
2017-05-25T23:37:13.209Z,92.50
2017-05-25T23:39:42.119Z,92.50
2017-05-25T23:42:11.548Z,92.60
2017-05-25T23:44:40.476Z,92.60
2017-05-25T23:47:09.380Z,92.90
2017-05-25T23:49:37.812Z,92.80
2017-05-25T23:52:06.729Z,92.80
2017-05-25T23:54:35.644Z,93.00
2017-05-25T23:57:04.916Z,93.00
2017-05-25T23:59:33.822Z,93.00
